Skip to main content

NOAA/GLERL Met Station at Michigan City, IN

Previous 5 days (top of hour only)
See also Previous 3 Hours (2 minute increments)
Jump down to Data
Switch to [English][Metric]
Zoom: Click and drag, Pan: shift-click and drag, Unzoom: double-click, Unzoom All




Note: Speed = mean wind during 2-minute period at top of hour,
Gust = max wind during 2-minute period at top of hour,
Peak = max wind during entire hour.
• See also 5-day windrose plot


NOAA/GLERL Met Station at Michigan City, IN

Previous 5 days (top of hour only)
See also Previous 3 Hours (2 minute increments)
Jump up to Graphs
Switch to [English][Metric]
                  Wind  Wind  Wind   Air   Dew   Rel     Sta   PAR
                   Spd   Gst   Dir  Temp    Pt   Hum    Pres uE/m2/
YYYY-MM-DD   CDT   kts   kts   deg     F     F     %   in Hg   sec
2017-10-20 18:00   7.4   8.6   149  72.9  47.7  40.3    0.00     0
2017-10-20 17:00   8.7  11.3   172  75.2  48.1  37.8    0.00     0
2017-10-20 16:00  13.2  15.0   168  76.5  47.1  34.9    0.00     0
2017-10-20 15:00   9.9  13.4   172  75.7  48.5  37.7    0.00     0
2017-10-20 14:00  15.7  20.0   192  74.5  48.8  39.8    0.00     0
2017-10-20 13:00  11.1  13.0   188  73.4  48.8  41.2    0.00     0
2017-10-20 12:00   8.4  10.1   162  72.0  50.0  45.4    0.00     0
2017-10-20 11:00  10.1  12.1   172  68.2  50.4  52.6    0.00     0
2017-10-20 10:00  10.5  13.6   157  63.9  49.4  59.0    0.00     0
2017-10-20 09:00  12.1  13.8   159  60.6  48.9  65.0    0.00     0
2017-10-20 08:00  12.2  15.0   154  57.6  48.3  70.8    0.00     0
2017-10-20 07:00  12.6  15.6   149  57.4  47.7  69.8    0.00     0
2017-10-20 06:00  11.7  14.6   164  57.7  47.1  67.4    0.00     0
2017-10-20 05:00  11.7  13.2   152  57.0  46.3  67.0    0.00     0
2017-10-20 04:00  13.4  16.1   145  57.4  44.2  61.0    0.00     0
2017-10-20 03:00  14.2  15.7   143  57.7  40.6  52.4    0.00     0
2017-10-20 02:00  11.7  13.2   142  57.7  34.2  40.7    0.00     0
2017-10-20 01:00  10.9  12.4   133  57.6  29.3  33.6    0.00     0
2017-10-20 00:00  10.5  12.4   135  57.2  28.0  32.3    0.00     0
2017-10-19 23:00   9.1   9.5   124  55.6  29.9  37.1    0.00     0
2017-10-19 22:00   1.9   3.1   101  54.0  36.8  51.8    0.00     0
2017-10-19 21:00   7.0   7.8   126  55.0  36.2  48.7    0.00     0
2017-10-19 20:00   5.8   6.2   117  56.1  38.6  51.4    0.00     0
2017-10-19 19:00   6.4   6.8   140  58.1  40.1  50.8    0.00     0
2017-10-19 18:00   1.6   1.9   167  59.5  41.9  51.7    0.00     0
2017-10-19 17:00   1.9   2.1    44  59.2  41.0  50.5    0.00     0
2017-10-19 16:00   2.5   3.1    13  59.7  41.2  50.0    0.00     0
2017-10-19 15:00   3.5   3.7   344  65.7  43.4  44.0    0.00     0
2017-10-19 14:00   3.7   3.9   337  63.3  41.3  44.0    0.00     0
2017-10-19 13:00   3.1   3.9   331  63.1  44.3  49.8    0.00     0
2017-10-19 12:00   4.5   4.9   334  62.1  42.2  47.8    0.00     0
2017-10-19 11:00   6.4   7.0   333  60.8  42.9  51.3    0.00     0
2017-10-19 10:00   5.4   6.0   273  60.3  47.6  62.5    0.00     0
2017-10-19 09:00  12.6  13.6   236  55.6  50.0  81.2    0.00     0
2017-10-19 08:00   7.8  10.9   196  53.8  47.1  77.8    0.00     0
2017-10-19 07:00   8.7  12.1   214  55.8  48.5  76.4    0.00     0
2017-10-19 06:00   7.0   8.0   186  54.7  46.5  73.6    0.00     0
2017-10-19 05:00   8.4   9.5   186  54.3  46.1  73.4    0.00     0
2017-10-19 04:00  10.7  12.4   182  55.0  45.7  70.5    0.00     0
2017-10-19 03:00  13.4  17.5   190  56.1  45.6  67.5    0.00     0
2017-10-19 02:00  12.1  14.8   178  57.6  45.1  62.8    0.00     0
2017-10-19 01:00  12.2  14.8   180  58.3  45.2  61.3    0.00     0
2017-10-19 00:00  14.0  16.7   180  59.2  44.6  58.0    0.00     0
2017-10-18 23:00  13.2  15.7   182  59.9  43.8  54.8    0.00     0
2017-10-18 22:00  14.6  17.7   183  60.8  43.3  52.2    0.00     0
2017-10-18 21:00  13.4  15.9   177  60.8  43.0  51.6    0.00     0
2017-10-18 20:00  14.2  18.5   181  62.2  41.9  46.8    0.00     0
2017-10-18 19:00  15.2  17.9   163  63.9  39.6  40.5    0.00     0
2017-10-18 18:00  10.7  13.6   168  65.5  39.5  38.1    0.00     0
2017-10-18 17:00  10.3  13.0   177  67.5  38.4  34.0    0.00     0
2017-10-18 16:00  16.7  20.6   177  67.8  37.0  31.8    0.00     0
2017-10-18 15:00  15.7  19.6   168  67.1  36.2  31.6    0.00     0
2017-10-18 14:00  17.1  19.1   170  65.8  38.7  36.4    0.00     0
2017-10-18 13:00  19.2  22.6   171  64.4  38.8  38.5    0.00     0
2017-10-18 12:00  16.9  20.4   187  62.4  40.6  44.3    0.00     0
2017-10-18 11:00  14.4  17.1   183  59.5  41.5  50.9    0.00     0
2017-10-18 10:00  12.6  14.4   178  55.8  41.4  58.2    0.00     0
2017-10-18 09:00  14.4  16.7   164  51.6  40.4  65.1    0.00     0
2017-10-18 08:00  14.4  17.5   164  50.0  39.5  66.8    0.00     0
2017-10-18 07:00  15.4  19.1   164  50.4  39.6  66.1    0.00     0
2017-10-18 06:00  14.6  16.3   163  50.5  39.5  65.4    0.00     0
2017-10-18 05:00  14.8  17.3   163  51.8  39.5  62.5    0.00     0
2017-10-18 04:00  14.8  18.7   165  52.9  39.1  59.0    0.00     0
2017-10-18 03:00  14.8  18.3   169  53.1  38.9  58.2    0.00     0
2017-10-18 02:00  13.2  16.7   169  53.4  39.5  58.8    0.00     0
2017-10-18 01:00  14.0  16.1   164  55.0  38.8  53.9    0.00     0
2017-10-18 00:00  13.0  16.7   175  55.8  39.0  52.9    0.00     0
2017-10-17 23:00  12.6  15.9   174  56.7  38.9  51.0    0.00     0
2017-10-17 22:00  10.9  12.6   178  58.5  38.7  47.5    0.00     0
2017-10-17 21:00  11.3  13.8   178  59.9  39.3  46.0    0.00     0
2017-10-17 20:00   9.5  10.9   171  61.2  39.3  44.1    0.00     0
2017-10-17 19:00   9.1  11.5   175  62.8  39.5  41.9    0.00     0
2017-10-17 18:00   9.5  10.5   188  65.3  39.1  37.7    0.00     0
2017-10-17 17:00  11.5  13.0   199  67.3  38.6  34.4    0.00     0
2017-10-17 16:00  17.9  20.6   211  67.1  39.0  35.2    0.00     0
2017-10-17 15:00  17.9  20.4   202  66.4  39.3  36.5    0.00     0
2017-10-17 14:00  14.8  20.4   200  65.7  40.0  38.6    0.00     0
2017-10-17 13:00  16.7  19.1   207  64.4  40.6  41.3    0.00     0
2017-10-17 12:00  15.7  18.3   208  62.8  40.4  43.4    0.00     0
2017-10-17 11:00  15.0  16.9   206  59.7  41.1  49.8    0.00     0
2017-10-17 10:00  15.9  20.0   196  57.6  39.6  50.8    0.00     0
2017-10-17 09:00  15.4  17.9   186  53.4  39.3  58.3    0.00     0
2017-10-17 08:00  13.0  15.2   179  49.8  38.4  64.6    0.00     0
2017-10-17 07:00  13.0  15.7   176  48.6  38.0  66.6    0.00     0
2017-10-17 06:00  14.0  16.7   175  50.4  37.0  59.8    0.00     0
2017-10-17 05:00  13.8  17.9   185  51.3  36.4  56.5    0.00     0
2017-10-17 04:00  11.3  13.4   186  51.1  37.0  58.2    0.00     0
2017-10-17 03:00  14.4  16.3   175  52.0  35.6  53.2    0.00     0
2017-10-17 02:00  12.6  14.2   184  51.6  36.8  56.5    0.00     0
2017-10-17 01:00  11.7  13.2   183  52.2  37.2  56.4    0.00     0
2017-10-17 00:00  11.5  12.8   181  53.2  36.9  53.4    0.00     0
2017-10-16 22:00   9.9  12.1   174  54.5  36.3  49.9    0.00     0
2017-10-16 21:00   8.6   9.5   183  55.0  35.9  48.2    0.00     0
2017-10-16 20:00   8.6   9.5   186  56.5  36.5  46.7    0.00     0
2017-10-16 19:00   7.6   8.6   176  58.3  35.4  41.9    0.00     0
2017-10-16 18:00   5.1   5.2   185  58.8  37.1  43.9    0.00     0
2017-10-16 17:00   3.3   3.9   199  58.5  37.3  44.8    0.00     0
2017-10-16 16:00   0.6   1.0   258  58.6  39.3  48.3    0.00     0
2017-10-16 15:00   5.4   6.2   243  56.8  38.4  49.7    0.00     0
2017-10-16 14:00   8.4   9.3   245  55.4  38.0  51.5    0.00     0
2017-10-16 13:00   6.0   6.8   258  54.0  39.5  57.8    0.00     0
2017-10-16 12:00   9.1  11.3   246  52.3  38.8  59.6    0.00     0
2017-10-16 11:00  14.6  16.3   241  51.6  40.2  64.6    0.00     0
2017-10-16 10:00  17.7  19.1   245  51.1  40.4  66.4    0.00     0
2017-10-16 09:00  19.4  21.2   249  51.3  40.3  65.9    0.00     0
2017-10-16 08:00  17.1  18.9   257  51.6  42.7  71.4    0.00     0
2017-10-16 07:00  13.0  15.0   269  51.6  40.0  64.2    0.00     0
2017-10-16 06:00  13.6  16.1   293  51.8  38.7  60.5    0.00     0
2017-10-16 05:00  14.2  15.6   305  51.8  38.5  60.0    0.00     0
2017-10-16 04:00  14.0  16.5   299  52.0  38.1  58.8    0.00     0
2017-10-16 03:00  16.9  18.7   293  51.6  40.9  66.4    0.00     0
2017-10-16 02:00  21.2  24.5   307  51.6  39.7  63.5    0.00     0
2017-10-16 01:00  20.4  23.3   303  52.5  41.4  65.6    0.00     0
2017-10-16 00:00  20.0  21.4   292  52.7  42.1  66.9    0.00     0
2017-10-15 23:00  22.0  24.9   291  53.4  42.9  67.1    0.00     0
2017-10-15 22:00  22.6  24.3   283  53.6  44.2  70.2    0.00     0
2017-10-15 21:00  15.7  17.5   352  50.7  45.6  82.5    0.00     0
2017-10-15 20:00  19.2  21.4   344  54.7  44.4  68.0    0.00     0
2017-10-15 19:00  22.4  23.5   324  54.7  42.3  62.6    0.00     0